createdAt,value
2023-02-27T00:01:46.553Z,3.60
2023-02-27T00:04:14.965Z,3.60
2023-02-27T00:06:43.127Z,3.73
2023-02-27T00:09:11.279Z,4.27
2023-02-27T00:11:41.178Z,3.70
2023-02-27T00:14:10.814Z,3.90
2023-02-27T00:16:39.243Z,4.20
2023-02-27T00:19:07.516Z,3.73
2023-02-27T00:21:36.899Z,3.70
2023-02-27T00:24:05.787Z,4.10
2023-02-27T00:26:33.933Z,3.83
2023-02-27T00:29:01.986Z,4.37
2023-02-27T00:31:31.584Z,4.37
2023-02-27T00:33:59.910Z,4.80
2023-02-27T00:36:28.173Z,3.30
2023-02-27T00:38:56.402Z,3.30
2023-02-27T00:41:24.859Z,3.83
2023-02-27T00:43:54.342Z,3.93
2023-02-27T00:46:22.484Z,3.33
2023-02-27T00:48:52.076Z,3.77
2023-02-27T00:51:21.999Z,3.87
2023-02-27T00:53:50.181Z,3.47
2023-02-27T00:56:18.292Z,3.63
2023-02-27T00:58:46.230Z,3.10
2023-02-27T01:01:15.480Z,4.20
2023-02-27T01:03:44.896Z,3.53
2023-02-27T01:06:14.308Z,3.77
2023-02-27T01:08:42.513Z,4.13
2023-02-27T01:11:10.727Z,3.93
2023-02-27T01:13:38.727Z,4.37
2023-02-27T01:16:08.717Z,4.03
2023-02-27T01:18:36.915Z,3.90
2023-02-27T01:21:05.956Z,5.37
2023-02-27T01:23:35.484Z,4.70
2023-02-27T01:26:03.575Z,3.70
2023-02-27T01:28:31.654Z,3.60
2023-02-27T01:30:59.726Z,3.07
2023-02-27T01:33:28.112Z,3.57
2023-02-27T01:35:56.292Z,4.83
2023-02-27T01:38:24.626Z,3.57
2023-02-27T01:40:54.871Z,3.07
2023-02-27T01:43:23.677Z,4.03
2023-02-27T01:45:53.050Z,4.73
2023-02-27T01:48:25.971Z,3.27
2023-02-27T01:50:57.722Z,3.90
2023-02-27T01:53:27.862Z,3.83
2023-02-27T01:56:01.699Z,4.10
2023-02-27T01:58:29.926Z,3.50
2023-02-27T02:00:58.943Z,3.87
2023-02-27T02:03:34.435Z,3.40
2023-02-27T02:06:06.182Z,3.90
2023-02-27T02:08:38.019Z,3.83
2023-02-27T02:11:09.181Z,4.10
2023-02-27T02:13:39.138Z,4.47
2023-02-27T02:16:24.010Z,4.13
2023-02-27T02:19:01.427Z,4.30
2023-02-27T02:21:51.159Z,4.60
2023-02-27T02:24:56.517Z,4.47
2023-02-27T02:27:43.971Z,4.77
2023-02-27T02:30:39.870Z,4.27
2023-02-27T02:33:44.565Z,4.63
2023-02-27T02:36:47.135Z,5.03
2023-02-27T02:39:33.631Z,4.50
2023-02-27T02:42:06.329Z,4.60
2023-02-27T02:44:48.906Z,3.90
2023-02-27T02:47:26.763Z,4.00
2023-02-27T02:49:59.165Z,4.17
2023-02-27T02:52:39.724Z,4.40
2023-02-27T02:55:15.153Z,4.13
2023-02-27T02:57:49.477Z,4.73
2023-02-27T03:00:21.668Z,4.03
2023-02-27T03:02:56.529Z,3.83
2023-02-27T03:05:29.492Z,4.17
2023-02-27T03:08:02.286Z,3.43
2023-02-27T03:10:36.327Z,4.63
2023-02-27T03:13:09.552Z,4.03
2023-02-27T03:15:46.292Z,4.90
2023-02-27T03:18:20.871Z,4.57
2023-02-27T03:20:54.101Z,4.70
2023-02-27T03:23:29.543Z,4.63
2023-02-27T03:25:59.792Z,3.97
2023-02-27T03:28:33.492Z,4.67
2023-02-27T03:31:10.154Z,4.23
2023-02-27T03:33:47.607Z,4.50
2023-02-27T03:36:27.688Z,4.37
2023-02-27T03:39:02.400Z,4.23
2023-02-27T03:41:35.949Z,3.30
2023-02-27T03:44:11.543Z,4.97
2023-02-27T03:46:39.916Z,4.20
2023-02-27T03:49:08.675Z,4.43
2023-02-27T03:51:37.740Z,4.67
2023-02-27T03:54:11.008Z,4.23
2023-02-27T03:56:46.046Z,4.23
2023-02-27T03:59:16.375Z,4.63
2023-02-27T04:01:45.468Z,4.60
2023-02-27T04:04:15.777Z,5.23
2023-02-27T04:07:05.046Z,4.77
2023-02-27T04:09:50.550Z,3.87
2023-02-27T04:12:54.316Z,4.17
2023-02-27T04:15:30.291Z,4.90
2023-02-27T04:18:07.275Z,4.50
2023-02-27T04:20:44.108Z,4.50
2023-02-27T04:23:19.045Z,4.73
2023-02-27T04:26:00.933Z,4.27
2023-02-27T04:28:40.767Z,4.57
2023-02-27T04:31:18.334Z,4.97
2023-02-27T04:33:52.008Z,5.43
2023-02-27T04:36:26.397Z,4.97
2023-02-27T04:39:04.911Z,5.40
2023-02-27T04:41:39.641Z,5.10
2023-02-27T04:44:12.032Z,5.67
2023-02-27T04:46:43.680Z,5.03
2023-02-27T04:49:17.184Z,5.10
2023-02-27T04:51:52.016Z,4.60
2023-02-27T04:54:26.537Z,4.87
2023-02-27T04:56:59.152Z,4.70
2023-02-27T04:59:32.273Z,4.90
2023-02-27T05:02:04.046Z,5.10
2023-02-27T05:04:37.064Z,4.33
2023-02-27T05:07:09.524Z,5.23
2023-02-27T05:09:43.814Z,5.17
2023-02-27T05:12:17.848Z,5.43
2023-02-27T05:14:52.166Z,5.07
2023-02-27T05:17:24.062Z,5.50
2023-02-27T05:19:52.447Z,5.30
2023-02-27T05:22:28.885Z,5.27
2023-02-27T05:25:04.176Z,5.23
2023-02-27T05:27:37.775Z,5.40
2023-02-27T05:30:17.281Z,5.13
2023-02-27T05:32:52.870Z,5.17
2023-02-27T05:35:28.918Z,4.83
2023-02-27T05:38:05.802Z,4.90
2023-02-27T05:40:38.320Z,4.77
2023-02-27T05:43:11.897Z,3.80
2023-02-27T05:45:44.895Z,4.87
2023-02-27T05:48:19.439Z,5.37
2023-02-27T05:50:51.950Z,4.93
2023-02-27T05:53:23.132Z,5.20
2023-02-27T05:55:54.607Z,5.93
2023-02-27T05:58:28.004Z,4.83
2023-02-27T06:01:00.018Z,4.93
2023-02-27T06:03:29.589Z,5.53
2023-02-27T06:06:00.472Z,5.40
2023-02-27T06:08:29.132Z,6.03
2023-02-27T06:10:57.408Z,5.77
2023-02-27T06:13:27.172Z,5.13
2023-02-27T06:15:55.157Z,6.17
2023-02-27T06:18:24.479Z,5.83
2023-02-27T06:20:53.226Z,5.57
2023-02-27T06:23:21.315Z,5.53
2023-02-27T06:25:50.688Z,5.90
2023-02-27T06:28:18.673Z,5.03
2023-02-27T06:30:46.754Z,5.67
2023-02-27T06:33:14.919Z,5.53
2023-02-27T06:35:45.140Z,5.17
2023-02-27T06:38:13.212Z,5.50
2023-02-27T06:40:41.130Z,5.47
2023-02-27T06:43:09.561Z,5.67
2023-02-27T06:45:38.535Z,6.03
2023-02-27T06:48:07.212Z,6.80
2023-02-27T06:50:35.273Z,5.40
2023-02-27T06:53:04.807Z,6.00
2023-02-27T06:55:32.998Z,5.47
2023-02-27T06:58:01.474Z,5.87
2023-02-27T07:00:30.170Z,6.30
2023-02-27T07:02:58.184Z,5.40
2023-02-27T07:05:26.199Z,5.70
2023-02-27T07:07:54.187Z,5.67
2023-02-27T07:10:27.140Z,4.57
2023-02-27T07:12:55.643Z,5.60
2023-02-27T07:15:23.900Z,5.57
2023-02-27T07:17:51.897Z,5.63
2023-02-27T07:20:19.836Z,5.60
2023-02-27T07:22:47.787Z,4.80
2023-02-27T07:25:15.844Z,5.73
2023-02-27T07:27:46.307Z,5.97
2023-02-27T07:30:14.978Z,6.30
2023-02-27T07:32:42.912Z,6.13
2023-02-27T07:35:11.968Z,6.37
2023-02-27T07:37:40.400Z,6.77
2023-02-27T07:40:10.195Z,7.27
2023-02-27T07:42:38.163Z,4.97
2023-02-27T07:45:08.936Z,6.33
2023-02-27T07:47:37.574Z,6.63
2023-02-27T07:50:06.315Z,6.93
2023-02-27T07:52:34.321Z,6.93
2023-02-27T07:55:02.297Z,6.57
2023-02-27T07:57:30.448Z,6.30
2023-02-27T07:59:58.450Z,6.37
2023-02-27T08:02:28.027Z,5.47
2023-02-27T08:04:55.991Z,5.57
2023-02-27T08:07:23.949Z,5.10
2023-02-27T08:09:51.968Z,6.43
2023-02-27T08:12:19.900Z,5.07
2023-02-27T08:14:47.837Z,6.00
2023-02-27T08:17:16.322Z,5.07
2023-02-27T08:19:45.789Z,6.07
2023-02-27T08:22:14.004Z,6.00
2023-02-27T08:24:42.351Z,6.57
2023-02-27T08:27:10.289Z,6.63
2023-02-27T08:29:38.557Z,5.93
2023-02-27T08:32:06.737Z,6.13
2023-02-27T08:34:34.711Z,6.27
2023-02-27T08:37:04.433Z,7.20
2023-02-27T08:39:32.616Z,6.73
2023-02-27T08:42:00.894Z,5.97
2023-02-27T08:44:28.866Z,5.83
2023-02-27T08:46:57.172Z,6.63
2023-02-27T08:49:25.868Z,5.53
2023-02-27T08:51:54.182Z,4.80
2023-02-27T08:54:23.477Z,5.63
2023-02-27T08:56:51.395Z,5.37
2023-02-27T08:59:19.628Z,5.63
2023-02-27T09:01:47.593Z,4.88
2023-02-27T09:04:16.250Z,5.68
2023-02-27T09:06:44.200Z,5.63
2023-02-27T09:09:12.518Z,5.05
2023-02-27T09:11:42.207Z,4.90
2023-02-27T09:14:10.569Z,5.10
2023-02-27T09:16:38.652Z,4.95
2023-02-27T09:19:07.051Z,5.18
2023-02-27T09:21:35.214Z,5.55
2023-02-27T09:24:13.704Z,5.50
2023-02-27T09:26:48.801Z,4.43
2023-02-27T09:29:17.611Z,4.72
2023-02-27T09:31:46.184Z,4.30
2023-02-27T09:34:14.240Z,5.40
2023-02-27T09:36:42.440Z,4.68
2023-02-27T09:39:10.936Z,4.40
2023-02-27T09:41:49.382Z,4.45
2023-02-27T09:44:39.753Z,4.93
2023-02-27T09:47:18.082Z,5.57
2023-02-27T09:49:57.412Z,4.18
2023-02-27T09:52:25.368Z,4.70
2023-02-27T09:54:55.203Z,4.53
2023-02-27T09:57:34.931Z,5.57
2023-02-27T10:00:15.170Z,4.68
2023-02-27T10:02:56.025Z,4.63
2023-02-27T10:05:32.173Z,5.30
2023-02-27T10:08:10.258Z,5.07
2023-02-27T10:10:45.437Z,4.63
2023-02-27T10:13:31.922Z,4.28
2023-02-27T10:16:02.273Z,4.10
2023-02-27T10:18:32.990Z,4.80
2023-02-27T10:21:04.485Z,4.63
2023-02-27T10:23:41.696Z,4.20
2023-02-27T10:26:20.063Z,4.32
2023-02-27T10:28:48.230Z,3.47
2023-02-27T10:31:21.812Z,4.10
2023-02-27T10:33:49.838Z,3.97
2023-02-27T10:36:33.140Z,4.18
2023-02-27T10:39:06.164Z,3.92
2023-02-27T10:41:35.981Z,4.35
2023-02-27T10:44:05.012Z,3.97
2023-02-27T10:46:38.332Z,4.07
2023-02-27T10:49:18.708Z,4.65
2023-02-27T10:51:48.280Z,4.68
2023-02-27T10:54:23.626Z,4.82
2023-02-27T10:56:53.613Z,2.90
2023-02-27T10:59:24.784Z,4.00
2023-02-27T11:01:56.542Z,3.58
2023-02-27T11:04:27.931Z,4.65
2023-02-27T11:06:56.651Z,3.28
2023-02-27T11:09:27.577Z,3.67
2023-02-27T11:11:57.146Z,5.20
2023-02-27T11:14:29.032Z,5.88
2023-02-27T11:17:00.632Z,4.38
2023-02-27T11:19:34.944Z,4.32
2023-02-27T11:22:05.853Z,4.20
2023-02-27T11:24:34.813Z,3.95
2023-02-27T11:27:06.454Z,3.42
2023-02-27T11:29:36.073Z,4.15
2023-02-27T11:32:15.167Z,3.67
2023-02-27T11:34:50.836Z,3.15
2023-02-27T11:37:26.736Z,3.60
2023-02-27T11:40:04.812Z,4.30
2023-02-27T11:42:35.640Z,3.97
2023-02-27T11:45:06.977Z,4.82
2023-02-27T11:47:39.717Z,4.75
2023-02-27T11:50:41.024Z,4.38
2023-02-27T11:53:27.162Z,3.58
2023-02-27T11:55:59.515Z,4.32
2023-02-27T11:58:33.837Z,4.82
2023-02-27T12:01:06.856Z,3.70
2023-02-27T12:03:47.504Z,4.03
2023-02-27T12:06:20.705Z,3.80
2023-02-27T12:08:54.383Z,4.20
2023-02-27T12:11:28.318Z,4.18
2023-02-27T12:14:03.084Z,4.32
2023-02-27T12:16:39.102Z,3.80
2023-02-27T12:19:17.538Z,4.18
2023-02-27T12:21:49.777Z,3.85
2023-02-27T12:24:23.394Z,4.28
2023-02-27T12:26:57.366Z,4.15
2023-02-27T12:29:31.924Z,4.18
2023-02-27T12:32:05.296Z,3.83
2023-02-27T12:34:41.963Z,4.43
2023-02-27T12:37:13.453Z,4.10
2023-02-27T12:39:44.076Z,3.38
2023-02-27T12:42:54.950Z,4.20
2023-02-27T12:45:54.288Z,4.25
2023-02-27T12:48:33.820Z,5.10
2023-02-27T12:51:16.707Z,4.00
2023-02-27T12:54:02.492Z,4.03
2023-02-27T12:56:41.248Z,4.10
2023-02-27T12:59:22.423Z,4.25
2023-02-27T13:02:00.664Z,4.05
2023-02-27T13:04:39.063Z,5.18
2023-02-27T13:07:17.555Z,4.50
2023-02-27T13:09:50.402Z,3.80
2023-02-27T13:12:26.069Z,3.63
2023-02-27T13:14:58.963Z,3.97
2023-02-27T13:17:32.659Z,4.60
2023-02-27T13:20:06.326Z,3.65
2023-02-27T13:22:42.576Z,3.97
2023-02-27T13:25:15.835Z,5.13
2023-02-27T13:27:48.025Z,3.58
2023-02-27T13:30:23.894Z,3.42
2023-02-27T13:33:03.944Z,4.05
2023-02-27T13:35:44.555Z,3.30
2023-02-27T13:38:43.729Z,3.90
2023-02-27T13:41:38.524Z,3.72
2023-02-27T13:44:50.132Z,4.47
2023-02-27T13:47:41.047Z,4.35
2023-02-27T13:50:46.603Z,3.65
2023-02-27T13:53:19.502Z,4.10
2023-02-27T13:55:49.000Z,3.95
2023-02-27T13:58:20.231Z,3.40
2023-02-27T14:01:01.027Z,3.40
2023-02-27T14:03:32.290Z,3.78
2023-02-27T14:06:06.907Z,3.25
2023-02-27T14:08:47.963Z,3.70
2023-02-27T14:11:23.301Z,3.95
2023-02-27T14:14:05.820Z,3.22
2023-02-27T14:17:00.120Z,3.00
2023-02-27T14:19:59.520Z,3.75
2023-02-27T14:22:40.714Z,3.28
2023-02-27T14:25:31.998Z,3.85
2023-02-27T14:28:03.430Z,3.63
2023-02-27T14:30:35.087Z,3.38
2023-02-27T14:33:12.957Z,3.88
2023-02-27T14:35:45.500Z,3.45
2023-02-27T14:38:18.402Z,4.07
2023-02-27T14:40:58.106Z,4.40
2023-02-27T14:43:36.615Z,4.07
2023-02-27T14:46:14.049Z,3.63
2023-02-27T14:48:42.149Z,4.13
2023-02-27T14:51:10.012Z,4.68
2023-02-27T14:53:38.217Z,4.65
2023-02-27T14:56:06.604Z,5.05
2023-02-27T14:58:35.897Z,5.35
2023-02-27T15:01:08.005Z,4.85
2023-02-27T15:03:42.181Z,5.78
2023-02-27T15:06:18.296Z,6.07
2023-02-27T15:08:49.731Z,4.97
2023-02-27T15:11:19.727Z,4.80
2023-02-27T15:13:52.139Z,5.13
2023-02-27T15:16:23.046Z,5.55
2023-02-27T15:18:52.816Z,5.25
2023-02-27T15:21:22.675Z,4.63
2023-02-27T15:23:57.721Z,3.95
2023-02-27T15:26:27.412Z,4.28
2023-02-27T15:28:59.884Z,4.35
2023-02-27T15:31:31.515Z,3.88
2023-02-27T15:34:01.473Z,5.47
2023-02-27T15:36:33.170Z,3.97
2023-02-27T15:39:15.458Z,5.00
2023-02-27T15:41:45.814Z,4.57
2023-02-27T15:44:17.004Z,2.58
2023-02-27T15:46:46.569Z,4.90
2023-02-27T15:49:18.929Z,4.55
2023-02-27T15:51:56.510Z,5.15
2023-02-27T15:54:24.692Z,4.90
2023-02-27T15:56:53.674Z,4.38
2023-02-27T15:59:23.103Z,3.65
2023-02-27T16:01:51.169Z,5.05
2023-02-27T16:04:25.388Z,4.32
2023-02-27T16:07:03.017Z,4.25
2023-02-27T16:09:33.820Z,4.20
2023-02-27T16:12:24.194Z,3.80
2023-02-27T16:14:54.741Z,5.95
2023-02-27T16:17:30.838Z,4.20
2023-02-27T16:20:02.062Z,3.20
2023-02-27T16:22:30.796Z,4.90
2023-02-27T16:25:09.703Z,4.63
2023-02-27T16:27:37.921Z,3.85
2023-02-27T16:30:12.986Z,4.50
2023-02-27T16:32:44.036Z,5.10
2023-02-27T16:35:19.282Z,5.20
2023-02-27T16:37:48.132Z,4.95
2023-02-27T16:40:18.183Z,5.30
2023-02-27T16:42:47.607Z,5.38
2023-02-27T16:45:19.046Z,3.97
2023-02-27T16:47:49.991Z,3.35
2023-02-27T16:50:22.115Z,4.40
2023-02-27T16:52:50.081Z,3.78
2023-02-27T16:55:18.460Z,4.72
2023-02-27T16:57:46.597Z,5.70
2023-02-27T17:00:20.429Z,4.90
2023-02-27T17:02:48.430Z,4.72
2023-02-27T17:05:16.822Z,3.90
2023-02-27T17:07:45.883Z,4.18
2023-02-27T17:10:17.930Z,5.20
2023-02-27T17:12:47.040Z,3.83
2023-02-27T17:15:16.743Z,4.35
2023-02-27T17:17:46.502Z,3.60
2023-02-27T17:20:15.878Z,3.80
2023-02-27T17:22:45.748Z,3.85
2023-02-27T17:25:14.841Z,4.53
2023-02-27T17:27:44.434Z,4.32
2023-02-27T17:30:14.146Z,3.55
2023-02-27T17:32:43.843Z,4.65
2023-02-27T17:35:12.375Z,4.75
2023-02-27T17:37:40.340Z,4.22
2023-02-27T17:40:09.841Z,3.63
2023-02-27T17:42:39.210Z,3.78
2023-02-27T17:45:09.485Z,4.97
2023-02-27T17:47:37.564Z,4.30
2023-02-27T17:50:07.861Z,4.20
2023-02-27T17:52:36.844Z,4.43
2023-02-27T17:55:06.990Z,4.53
2023-02-27T17:57:36.154Z,4.35
2023-02-27T18:00:05.775Z,4.05
2023-02-27T18:02:34.130Z,4.32
2023-02-27T18:05:02.322Z,4.50
2023-02-27T18:07:32.172Z,4.50
2023-02-27T18:10:00.254Z,4.00
2023-02-27T18:12:28.608Z,4.32
2023-02-27T18:14:57.357Z,5.15
2023-02-27T18:17:25.787Z,3.85
2023-02-27T18:19:55.281Z,4.13
2023-02-27T18:22:24.673Z,4.13
2023-02-27T18:24:55.709Z,4.60
2023-02-27T18:27:24.497Z,4.45
2023-02-27T18:29:52.456Z,4.20
2023-02-27T18:32:21.250Z,3.70
2023-02-27T18:34:49.416Z,4.60
2023-02-27T18:37:17.434Z,4.82
2023-02-27T18:39:45.806Z,4.57
2023-02-27T18:42:15.630Z,5.65
2023-02-27T18:44:43.612Z,5.30
2023-02-27T18:47:12.160Z,5.20
2023-02-27T18:49:40.151Z,4.53
2023-02-27T18:52:08.127Z,4.75
2023-02-27T18:54:36.239Z,5.18
2023-02-27T18:57:04.770Z,4.45
2023-02-27T18:59:34.225Z,3.67
2023-02-27T19:02:02.243Z,5.65
2023-02-27T19:04:33.980Z,4.60
2023-02-27T19:07:02.210Z,4.63
2023-02-27T19:09:32.811Z,4.65
2023-02-27T19:12:01.549Z,4.60
2023-02-27T19:14:29.808Z,4.07
2023-02-27T19:17:00.589Z,4.40
2023-02-27T19:19:28.945Z,4.18
2023-02-27T19:21:57.108Z,4.20
2023-02-27T19:24:25.445Z,4.15
2023-02-27T19:26:53.639Z,4.47
2023-02-27T19:29:22.433Z,4.78
2023-02-27T19:31:50.482Z,4.77
2023-02-27T19:34:19.952Z,4.87
2023-02-27T19:36:48.099Z,5.07
2023-02-27T19:39:16.012Z,6.10
2023-02-27T19:41:44.211Z,5.00
2023-02-27T19:44:12.961Z,4.80
2023-02-27T19:46:42.280Z,4.77
2023-02-27T19:49:12.177Z,4.45
2023-02-27T19:51:41.735Z,4.73
2023-02-27T19:54:14.697Z,3.80
2023-02-27T19:56:43.520Z,5.17
2023-02-27T19:59:12.811Z,5.27
2023-02-27T20:01:41.566Z,4.73
2023-02-27T20:04:11.263Z,4.57
2023-02-27T20:06:44.005Z,5.03
2023-02-27T20:09:15.374Z,3.93
2023-02-27T20:11:44.845Z,4.67
2023-02-27T20:14:14.096Z,4.07
2023-02-27T20:16:45.653Z,4.80
2023-02-27T20:19:16.600Z,4.40
2023-02-27T20:21:47.594Z,4.70
2023-02-27T20:24:18.839Z,6.97
2023-02-27T20:26:48.620Z,5.70
2023-02-27T20:29:19.162Z,5.10
2023-02-27T20:31:49.454Z,5.37
2023-02-27T20:34:22.799Z,5.13
2023-02-27T20:36:53.016Z,5.15
2023-02-27T20:39:22.716Z,4.80
2023-02-27T20:41:51.126Z,4.70
2023-02-27T20:44:19.771Z,4.40
2023-02-27T20:46:49.400Z,3.90
2023-02-27T20:49:17.949Z,5.17
2023-02-27T20:51:46.480Z,4.23
2023-02-27T20:54:20.789Z,4.40
2023-02-27T20:56:51.897Z,5.17
2023-02-27T20:59:23.652Z,5.57
2023-02-27T21:01:55.398Z,4.40
2023-02-27T21:04:26.190Z,5.30
2023-02-27T21:06:55.865Z,4.33
2023-02-27T21:09:25.217Z,5.00
2023-02-27T21:11:53.095Z,4.27
2023-02-27T21:14:24.173Z,5.47
2023-02-27T21:16:52.381Z,4.50
2023-02-27T21:19:21.759Z,4.80
2023-02-27T21:21:49.750Z,5.37
2023-02-27T21:24:17.827Z,4.97
2023-02-27T21:26:47.198Z,6.20
2023-02-27T21:29:17.363Z,6.60
2023-02-27T21:31:49.242Z,6.43
2023-02-27T21:34:20.923Z,5.50
2023-02-27T21:36:49.487Z,5.60
2023-02-27T21:39:20.254Z,5.10
2023-02-27T21:41:50.365Z,6.53
2023-02-27T21:44:20.614Z,7.30
2023-02-27T21:46:49.333Z,9.23
2023-02-27T21:49:19.521Z,7.07
2023-02-27T21:51:48.286Z,8.63
2023-02-27T21:54:18.155Z,5.87
2023-02-27T21:56:48.198Z,6.17
2023-02-27T21:59:19.060Z,5.73
2023-02-27T22:01:48.407Z,5.53
2023-02-27T22:04:16.769Z,6.60
2023-02-27T22:06:45.096Z,6.17
2023-02-27T22:09:13.338Z,5.43
2023-02-27T22:11:41.913Z,4.97
2023-02-27T22:14:10.592Z,5.00
2023-02-27T22:16:39.987Z,5.57
2023-02-27T22:19:08.017Z,5.37
2023-02-27T22:21:37.098Z,4.90
2023-02-27T22:24:05.896Z,5.03
2023-02-27T22:26:34.620Z,4.77
2023-02-27T22:29:03.056Z,5.10
2023-02-27T22:31:33.323Z,5.60
2023-02-27T22:34:08.260Z,4.77
2023-02-27T22:36:37.351Z,5.10
2023-02-27T22:39:06.505Z,4.40
2023-02-27T22:41:36.181Z,5.20
2023-02-27T22:44:05.287Z,4.50
2023-02-27T22:46:35.025Z,4.87
2023-02-27T22:49:07.299Z,4.63
2023-02-27T22:51:35.995Z,4.67
2023-02-27T22:54:06.687Z,5.53
2023-02-27T22:56:36.584Z,4.33
2023-02-27T22:59:05.103Z,5.43
2023-02-27T23:01:35.053Z,5.13
2023-02-27T23:04:06.943Z,4.83
2023-02-27T23:06:37.495Z,5.20
2023-02-27T23:09:07.243Z,4.83
2023-02-27T23:11:35.763Z,4.27
2023-02-27T23:14:03.980Z,4.97
2023-02-27T23:16:32.281Z,5.50
2023-02-27T23:19:01.494Z,4.37
2023-02-27T23:21:34.573Z,5.20
2023-02-27T23:24:04.713Z,4.90
2023-02-27T23:26:32.691Z,5.13
2023-02-27T23:29:00.587Z,5.63
2023-02-27T23:31:34.167Z,9.27
2023-02-27T23:34:03.904Z,6.00
2023-02-27T23:36:34.166Z,5.03
2023-02-27T23:39:02.961Z,4.93
2023-02-27T23:41:31.487Z,4.57
2023-02-27T23:44:01.530Z,4.70
2023-02-27T23:46:30.563Z,4.97
2023-02-27T23:48:59.470Z,4.53
2023-02-27T23:51:30.293Z,4.73
2023-02-27T23:54:00.447Z,4.80
2023-02-27T23:56:29.962Z,5.67
2023-02-27T23:59:00.153Z,4.63
